Time;durP1;ratioP1;P1;durP2;ratioP2;P2;SDS_P1;SDS_P2;PMS_P1;PMS_P2;Temp;Humidity;BMP_temperature;BMP_pressure;BME280_temperature;BME280_humidity;BME280_pressure;Samples;Min_cycle;Max_cycle;Signal;HPM_P1;HPM_P2
2022/04/19 00:00:19;;;;;;;1.03;1.03;;;8.10;55.00;7.40;98018.00;;;;5116068;28;20222;-77
2022/04/19 00:02:51;;;;;;;0.90;0.90;;;8.10;55.30;7.40;98016.00;;;;5116127;28;20206;-77
2022/04/19 00:05:17;;;;;;;1.17;1.17;;;8.00;55.70;7.40;98007.00;;;;5116019;28;20779;-77
2022/04/19 00:07:44;;;;;;;0.80;0.80;;;8.00;55.40;7.40;98012.00;;;;5115944;28;20194;-77
2022/04/19 00:10:13;;;;;;;0.90;0.90;;;8.00;55.40;7.40;98012.00;;;;5115951;28;20280;-77
2022/04/19 00:12:40;;;;;;;1.00;1.00;;;8.00;55.50;7.30;97999.00;;;;5116008;28;20210;-77
2022/04/19 00:15:10;;;;;;;0.60;0.60;;;8.00;55.40;7.20;98013.00;;;;5116200;28;20205;-77
2022/04/19 00:17:37;;;;;;;1.63;1.53;;;7.90;55.60;7.30;98005.00;;;;5116024;28;20305;-77
2022/04/19 00:20:07;;;;;;;1.73;1.63;;;7.90;55.50;7.20;97992.00;;;;5116095;28;20236;-77
2022/04/19 00:22:34;;;;;;;0.87;0.87;;;7.80;55.10;7.10;97986.00;;;;5115831;28;20297;-77
2022/04/19 00:25:01;;;;;;;19.83;1.97;;;7.80;55.10;7.00;97991.00;;;;5117810;28;20274;-77
2022/04/19 00:27:27;;;;;;;1.30;1.30;;;7.60;55.60;7.00;97986.00;;;;5097888;28;20571;-77
2022/04/19 00:29:54;;;;;;;1.27;1.20;;;7.60;55.80;6.90;97986.00;;;;5097934;28;20197;-77
2022/04/19 00:32:24;;;;;;;1.47;1.17;;;7.60;56.00;6.80;97993.00;;;;5115835;28;20217;-77
2022/04/19 00:34:51;;;;;;;1.10;1.10;;;7.50;56.70;6.90;97981.00;;;;5098461;28;20542;-77
2022/04/19 00:37:18;;;;;;;0.70;0.70;;;7.50;57.00;6.90;97985.00;;;;5097771;28;20228;-76
2022/04/19 00:39:45;;;;;;;0.80;0.80;;;7.60;56.60;7.00;97983.00;;;;5114710;28;20250;-77
2022/04/19 00:42:11;;;;;;;0.90;0.90;;;7.50;57.60;6.90;97987.00;;;;5115646;28;20353;-76
2022/04/19 00:44:39;;;;;;;1.93;1.60;;;7.50;57.30;6.80;97977.00;;;;5099026;28;20304;-77
2022/04/19 00:47:07;;;;;;;0.70;0.70;;;7.50;57.30;6.80;97986.00;;;;5098219;28;20213;-77
2022/04/19 00:49:36;;;;;;;0.97;0.97;;;7.50;57.60;6.80;97982.00;;;;5115622;28;20661;-77
2022/04/19 00:52:05;;;;;;;0.80;0.80;;;7.40;57.30;6.70;97977.00;;;;5115467;28;20192;-76
2022/04/19 00:54:32;;;;;;;0.80;0.80;;;7.40;56.60;6.80;97977.00;;;;5115464;28;20220;-77
2022/04/19 00:57:05;;;;;;;0.80;0.80;;;7.40;56.80;6.80;97977.00;;;;5097328;28;20546;-77
2022/04/19 00:59:34;;;;;;;0.60;0.60;;;7.40;56.50;6.70;97967.00;;;;5115278;28;20212;-76
2022/04/19 01:02:01;;;;;;;4.90;1.13;;;7.40;56.90;6.70;97960.00;;;;5115398;28;20248;-77
2022/04/19 01:04:28;;;;;;;1.13;1.13;;;7.30;56.50;6.70;97964.00;;;;5115666;28;20216;-77
2022/04/19 01:06:55;;;;;;;1.83;1.73;;;7.30;56.80;6.60;97960.00;;;;5116013;28;20279;-77
2022/04/19 01:09:22;;;;;;;0.60;0.60;;;7.20;56.80;6.50;97952.00;;;;5115797;28;20303;-77
2022/04/19 01:14:36;;;;;;;0.60;0.60;;;7.20;58.30;6.70;97960.00;;;;5115145;28;20289;-78
2022/04/19 01:17:04;;;;;;;1.00;1.00;;;7.20;57.70;6.30;97954.00;;;;5114941;28;20539;-77
2022/04/19 01:19:32;;;;;;;1.10;1.10;;;7.00;56.90;6.20;97951.00;;;;5115271;28;20222;-78
2022/04/19 01:21:59;;;;;;;1.50;1.30;;;6.90;57.60;6.10;97945.00;;;;5115203;28;20260;-77
2022/04/19 01:24:25;;;;;;;0.80;0.80;;;6.80;58.00;6.20;97946.00;;;;5115164;28;20224;-77
2022/04/19 01:26:57;;;;;;;0.73;0.73;;;6.80;58.90;6.20;97943.00;;;;5115451;28;20249;-77
2022/04/19 01:29:25;;;;;;;0.77;0.77;;;6.90;59.40;6.20;97946.00;;;;5097474;28;20198;-76
2022/04/19 01:31:54;;;;;;;1.57;1.47;;;6.80;59.20;6.40;97953.00;;;;5114874;28;20279;-77
2022/04/19 01:34:22;;;;;;;1.23;1.17;;;6.90;58.90;6.20;97937.00;;;;5114806;28;20276;-77
2022/04/19 01:36:49;;;;;;;1.00;1.00;;;6.90;58.40;6.20;97941.00;;;;5114107;28;20283;-76
2022/04/19 01:39:16;;;;;;;0.70;0.70;;;6.90;59.20;6.20;97940.00;;;;5114866;28;20233;-77
2022/04/19 01:41:42;;;;;;;1.63;1.53;;;6.80;59.10;6.30;97939.00;;;;5114641;28;20232;-77
2022/04/19 01:44:09;;;;;;;0.70;0.70;;;6.90;59.30;6.20;97928.00;;;;5114566;28;20256;-77
2022/04/19 01:46:36;;;;;;;1.03;1.03;;;6.90;59.00;6.40;97934.00;;;;5114467;28;20192;-76
2022/04/19 01:49:04;;;;;;;0.77;0.77;;;6.90;58.80;6.40;97926.00;;;;5096517;28;20210;-77
2022/04/19 01:51:31;;;;;;;2.10;1.27;;;6.90;58.00;6.20;97932.00;;;;5114043;28;20307;-77
2022/04/19 01:53:58;;;;;;;0.90;0.90;;;6.90;58.40;6.30;97928.00;;;;5114581;28;20242;-77
2022/04/19 01:56:25;;;;;;;1.20;1.20;;;6.90;58.50;6.20;97924.00;;;;5114341;28;20226;-77
2022/04/19 01:58:51;;;;;;;0.80;0.80;;;6.80;58.20;6.10;97924.00;;;;5114382;28;20545;-77
2022/04/19 02:01:20;;;;;;;0.83;0.83;;;6.80;58.30;6.00;97928.00;;;;5114308;28;20267;-77
2022/04/19 02:03:49;;;;;;;0.90;0.90;;;6.70;58.60;6.00;97925.00;;;;5114266;28;20222;-76
2022/04/19 02:06:20;;;;;;;0.87;0.87;;;6.70;58.80;6.10;97923.00;;;;5096372;28;20308;-77
2022/04/19 02:08:46;;;;;;;0.67;0.67;;;6.70;58.80;5.90;97935.00;;;;5114222;28;20198;-77
2022/04/19 02:11:15;;;;;;;0.70;0.70;;;6.60;58.70;5.80;97929.00;;;;5114545;28;20208;-77
2022/04/19 02:13:43;;;;;;;2.00;1.73;;;6.60;58.50;5.70;97928.00;;;;5114081;28;20194;-78
2022/04/19 02:16:09;;;;;;;0.97;0.97;;;6.40;58.20;5.70;97927.00;;;;5096046;28;20226;-77
2022/04/19 02:18:35;;;;;;;0.83;0.83;;;6.40;58.50;5.80;97919.00;;;;5114188;28;20194;-77
2022/04/19 02:21:02;;;;;;;1.07;1.07;;;6.40;59.00;5.80;97922.00;;;;5114191;28;20245;-77
2022/04/19 02:23:28;;;;;;;0.67;0.67;;;6.40;59.00;5.80;97920.00;;;;5114017;28;20221;-77
2022/04/19 02:25:55;;;;;;;1.07;1.07;;;6.40;58.90;5.70;97922.00;;;;5114063;28;20235;-77
2022/04/19 02:28:22;;;;;;;1.57;1.03;;;6.40;59.00;5.80;97926.00;;;;5114272;28;20202;-77
2022/04/19 02:30:50;;;;;;;1.30;1.20;;;6.40;59.90;5.80;97923.00;;;;5096078;28;20209;-78
2022/04/19 02:33:17;;;;;;;0.90;0.90;;;6.30;60.20;5.80;97920.00;;;;5114058;28;20217;-76
2022/04/19 02:35:43;;;;;;;1.03;1.03;;;6.40;59.80;5.70;97886.00;;;;5113960;28;20221;-77
2022/04/19 02:38:10;;;;;;;1.47;1.37;;;6.30;59.40;5.70;97917.00;;;;5113893;28;20221;-77
2022/04/19 02:40:37;;;;;;;0.90;0.90;;;6.30;59.30;5.70;97900.00;;;;5113851;28;20205;-77
2022/04/19 02:43:03;;;;;;;0.80;0.80;;;6.20;59.50;5.70;97914.00;;;;5113623;28;20221;-78
2022/04/19 02:45:32;;;;;;;2.43;1.03;;;6.30;60.50;5.40;97908.00;;;;5113960;28;20231;-77
2022/04/19 02:48:05;;;;;;;2.33;1.80;;;6.20;59.80;5.60;97883.00;;;;5113712;28;20198;-77
2022/04/19 02:50:33;;;;;;;0.70;0.70;;;6.20;60.60;5.70;97909.00;;;;5113802;28;20201;-78
2022/04/19 02:53:01;;;;;;;6.27;1.40;;;6.20;60.60;5.60;97900.00;;;;5095797;28;20713;-78
2022/04/19 02:55:28;;;;;;;0.70;0.70;;;6.20;59.90;5.60;97900.00;;;;5113656;28;20313;-78
2022/04/19 02:57:55;;;;;;;1.20;1.10;;;6.20;59.80;5.50;97903.00;;;;5113890;28;20198;-76
2022/04/19 03:00:22;;;;;;;1.37;1.37;;;6.20;59.60;5.50;97892.00;;;;5113680;28;20222;-76
2022/04/19 03:02:52;;;;;;;1.40;1.40;;;6.10;60.40;5.60;97892.00;;;;5115599;28;20683;-76
2022/04/19 03:05:21;;;;;;;1.00;1.00;;;6.10;60.40;5.40;97900.00;;;;5117187;28;20240;-75
2022/04/19 03:07:48;;;;;;;0.97;0.97;;;6.10;59.80;5.40;97894.00;;;;5117134;28;20330;-77
2022/04/19 03:10:16;;;;;;;0.70;0.70;;;6.00;60.00;5.50;97898.00;;;;5117161;28;20225;-77
2022/04/19 03:12:43;;;;;;;0.80;0.80;;;6.10;59.90;5.20;97889.00;;;;5117095;28;20275;-77
2022/04/19 03:15:11;;;;;;;1.43;1.43;;;6.00;60.20;5.20;97886.00;;;;5117118;28;20197;-77
2022/04/19 03:17:38;;;;;;;0.60;0.60;;;6.00;60.60;5.20;97885.00;;;;5117022;28;20749;-77
2022/04/19 03:20:09;;;;;;;0.83;0.83;;;6.00;61.30;5.30;97885.00;;;;5116993;28;20237;-75
2022/04/19 03:28:07;;;;;;;1.10;1.10;;;5.90;61.50;5.30;97883.00;;;;5116729;28;20274;-76
2022/04/19 03:30:33;;;;;;;1.67;1.57;;;6.00;61.20;5.20;97880.00;;;;5116904;28;20217;-76
2022/04/19 03:32:59;;;;;;;0.80;0.80;;;5.90;61.50;5.20;97875.00;;;;5116883;28;20200;-77
2022/04/19 03:35:28;;;;;;;0.83;0.83;;;5.90;61.70;5.30;97882.00;;;;5098758;28;20543;-77
2022/04/19 03:37:56;;;;;;;1.00;1.00;;;5.90;61.40;5.20;97877.00;;;;5116850;28;20255;-77
2022/04/19 03:40:24;;;;;;;0.87;0.87;;;5.90;60.90;5.20;97885.00;;;;5116656;28;20298;-76
2022/04/19 03:42:52;;;;;;;1.20;1.10;;;5.90;60.90;5.10;97890.00;;;;5116774;28;20202;-77
2022/04/19 03:45:18;;;;;;;0.83;0.83;;;5.80;61.40;5.00;97875.00;;;;5116458;28;20222;-77
2022/04/19 03:47:45;;;;;;;0.80;0.80;;;5.70;62.20;5.10;97885.00;;;;5098562;28;20234;-76
2022/04/19 03:50:11;;;;;;;0.97;0.97;;;5.80;61.90;5.20;97892.00;;;;5116402;28;20204;-76
2022/04/19 03:52:38;;;;;;;0.70;0.70;;;5.80;61.50;5.10;97878.00;;;;5116421;28;20234;-76
2022/04/19 03:55:06;;;;;;;0.70;0.70;;;5.70;61.20;5.10;97860.00;;;;5098263;28;20225;-76
2022/04/19 03:57:34;;;;;;;0.60;0.60;;;5.70;60.90;5.00;97889.00;;;;5098395;28;20802;-77
2022/04/19 04:00:00;;;;;;;0.87;0.87;;;5.70;60.90;5.10;97886.00;;;;5116298;28;20222;-77
2022/04/19 04:02:30;;;;;;;1.57;1.47;;;5.70;61.10;5.00;97885.00;;;;5116149;28;20623;-76
2022/04/19 04:04:57;;;;;;;4.17;1.63;;;5.70;61.40;5.10;97893.00;;;;5116435;28;20276;-76
2022/04/19 04:07:26;;;;;;;1.07;1.07;;;5.80;61.30;5.00;97893.00;;;;5098277;28;20283;-76
2022/04/19 04:09:56;;;;;;;1.30;1.20;;;5.70;60.70;5.00;97891.00;;;;5098320;28;20309;-76
2022/04/19 04:12:25;;;;;;;0.97;0.97;;;5.70;61.50;5.00;97888.00;;;;5115922;28;20206;-76
2022/04/19 04:14:52;;;;;;;3.23;2.20;;;5.70;61.80;5.00;97892.00;;;;5116012;28;20194;-76
2022/04/19 04:17:21;;;;;;;0.80;0.80;;;5.70;61.40;4.80;97895.00;;;;5116094;28;20553;-76
2022/04/19 04:19:47;;;;;;;0.80;0.80;;;5.60;61.50;4.80;97898.00;;;;5115983;28;20236;-76
2022/04/19 04:22:14;;;;;;;1.87;1.77;;;5.50;61.60;4.80;97890.00;;;;5116080;28;20269;-76
2022/04/19 04:24:40;;;;;;;1.50;1.43;;;5.50;61.60;4.80;97897.00;;;;5115983;28;20313;-77
2022/04/19 04:27:07;;;;;;;2.43;1.70;;;5.50;61.60;4.70;97898.00;;;;5116062;28;20280;-77
2022/04/19 04:29:34;;;;;;;12.80;1.87;;;5.40;62.20;4.80;97891.00;;;;5115948;28;20534;-77
2022/04/19 04:32:04;;;;;;;0.70;0.70;;;5.50;63.40;4.80;97899.00;;;;5115924;28;20517;-76
2022/04/19 04:34:31;;;;;;;0.67;0.67;;;5.50;62.10;4.90;97895.00;;;;5115934;28;20214;-77
2022/04/19 04:36:57;;;;;;;1.53;1.43;;;5.50;62.50;4.90;97897.00;;;;5098067;28;20226;-77
2022/04/19 04:39:24;;;;;;;1.27;1.17;;;5.50;62.00;4.80;97894.00;;;;5116593;28;20283;-76
2022/04/19 04:41:52;;;;;;;1.23;1.13;;;5.50;61.90;4.80;97886.00;;;;5103796;28;20222;-77
2022/04/19 04:44:21;;;;;;;1.10;1.10;;;5.50;62.10;4.80;97896.00;;;;5122792;28;20301;-77
2022/04/19 04:49:35;;;;;;;0.80;0.80;;;5.50;61.90;4.90;97901.00;;;;5117852;28;20217;-78
2022/04/19 04:52:02;;;;;;;0.90;0.90;;;5.60;62.10;5.00;97895.00;;;;5115377;28;20230;-77
2022/04/19 04:54:29;;;;;;;1.83;1.67;;;5.60;62.80;5.00;97899.00;;;;5100449;28;20202;-77
2022/04/19 04:56:55;;;;;;;1.60;1.53;;;5.70;62.40;5.00;97891.00;;;;5115459;28;20229;-76
2022/04/19 04:59:22;;;;;;;4.90;1.83;;;5.70;61.80;5.10;97896.00;;;;5115623;28;20193;-77
2022/04/19 05:01:49;;;;;;;5.67;1.27;;;5.70;62.30;5.00;97887.00;;;;5097559;28;20740;-78
2022/04/19 05:04:16;;;;;;;0.90;0.90;;;5.70;62.00;4.90;97895.00;;;;5115300;28;20312;-78
2022/04/19 05:06:42;;;;;;;1.13;1.13;;;5.60;62.30;4.90;97886.00;;;;5115342;28;20618;-77
2022/04/19 05:09:09;;;;;;;1.20;1.20;;;5.60;62.10;5.00;97891.00;;;;5115297;28;20305;-78
2022/04/19 05:11:35;;;;;;;1.00;1.00;;;5.60;62.80;5.00;97896.00;;;;5115890;28;20209;-77
2022/04/19 05:14:02;;;;;;;0.90;0.90;;;5.70;62.80;5.00;97885.00;;;;5115527;28;20194;-76
2022/04/19 05:16:30;;;;;;;1.10;1.10;;;5.70;62.70;5.00;97903.00;;;;5115121;28;20296;-77
2022/04/19 05:18:57;;;;;;;0.90;0.90;;;5.70;62.70;5.20;97887.00;;;;5115077;28;20202;-77
2022/04/19 05:21:24;;;;;;;0.80;0.80;;;5.80;62.30;5.30;97895.00;;;;5114945;28;20229;-76
2022/04/19 05:23:50;;;;;;;1.60;1.37;;;5.80;62.30;5.20;97892.00;;;;5115079;28;20198;-77
2022/04/19 05:26:17;;;;;;;0.80;0.80;;;5.90;63.20;5.20;97892.00;;;;5114217;28;20314;-77
2022/04/19 05:28:43;;;;;;;0.93;0.93;;;5.90;62.00;5.30;97897.00;;;;5114999;28;20245;-78
2022/04/19 05:31:12;;;;;;;1.07;1.07;;;5.90;62.40;5.50;97892.00;;;;5114947;28;20629;-77
2022/04/19 05:33:39;;;;;;;1.30;1.20;;;6.00;63.00;5.50;97897.00;;;;5114791;28;20209;-77
2022/04/19 05:36:06;;;;;;;9.33;1.13;;;6.10;63.00;5.50;97872.00;;;;5114724;28;20305;-78
2022/04/19 05:38:33;;;;;;;0.97;0.97;;;6.20;63.20;5.60;97907.00;;;;5114655;28;20318;-77
2022/04/19 05:40:59;;;;;;;1.33;1.03;;;6.30;63.20;5.70;97911.00;;;;5114889;28;20194;-78
2022/04/19 05:43:28;;;;;;;2.60;1.53;;;6.40;63.10;5.80;97910.00;;;;5114658;28;20688;-77
2022/04/19 05:45:58;;;;;;;2.07;1.97;;;6.40;64.10;6.00;97909.00;;;;5114659;28;20209;-77
2022/04/19 05:48:24;;;;;;;0.90;0.90;;;6.60;64.10;6.00;97918.00;;;;5114697;28;20269;-78
2022/04/19 05:50:51;;;;;;;1.57;1.47;;;6.60;63.90;6.10;97911.00;;;;5113693;28;20213;-77
2022/04/19 05:53:18;;;;;;;0.70;0.70;;;6.70;63.90;6.20;97905.00;;;;5096902;28;20301;-78
2022/04/19 05:55:47;;;;;;;0.83;0.83;;;6.80;63.50;6.30;97899.00;;;;5114567;28;20204;-77
2022/04/19 05:58:14;;;;;;;1.00;1.00;;;6.90;63.00;6.30;97905.00;;;;5114590;28;20639;-77
2022/04/19 06:00:41;;;;;;;1.20;1.20;;;7.00;62.70;6.50;97904.00;;;;5096461;28;20249;-77
2022/04/19 06:05:52;;;;;;;2.13;2.03;;;7.30;61.00;6.60;97909.00;;;;5114279;28;20218;-76
2022/04/19 06:08:21;;;;;;;0.80;0.80;;;7.30;60.30;6.80;97911.00;;;;5096344;28;20199;-77
2022/04/19 06:10:51;;;;;;;1.07;0.97;;;7.40;60.40;6.80;97903.00;;;;5114198;28;20236;-77
2022/04/19 06:13:17;;;;;;;1.33;1.23;;;7.40;61.30;6.80;97907.00;;;;5096453;28;20557;-77
2022/04/19 06:15:44;;;;;;;1.17;1.17;;;7.50;61.60;6.90;97918.00;;;;5096433;28;20259;-76
2022/04/19 06:18:10;;;;;;;1.30;1.20;;;7.60;61.80;7.10;97915.00;;;;5114249;28;20287;-76
2022/04/19 06:20:37;;;;;;;2.93;1.63;;;7.60;61.00;7.20;97904.00;;;;5114123;28;20277;-76
2022/04/19 06:23:04;;;;;;;0.60;0.60;;;7.70;60.70;7.30;97905.00;;;;5114109;28;20305;-77
2022/04/19 06:25:31;;;;;;;2.47;0.97;;;7.90;61.00;7.40;97912.00;;;;5114082;28;20277;-77
2022/04/19 06:27:58;;;;;;;0.80;0.80;;;8.00;60.70;7.40;97907.00;;;;5113952;28;20383;-76
2022/04/19 06:30:25;;;;;;;0.93;0.93;;;8.00;61.00;7.50;97908.00;;;;5095997;28;20209;-77
2022/04/19 06:32:52;;;;;;;1.17;1.00;;;8.10;60.00;7.60;97909.00;;;;5095955;28;20293;-78
2022/04/19 06:35:19;;;;;;;0.57;0.57;;;8.20;58.60;7.60;97895.00;;;;5114111;28;20293;-77
2022/04/19 06:37:47;;;;;;;0.80;0.80;;;8.20;57.50;7.70;97904.00;;;;5118078;28;20232;-76
2022/04/19 06:40:14;;;;;;;2.00;1.30;;;8.30;57.10;7.80;97905.00;;;;5117576;28;20653;-76
2022/04/19 06:42:42;;;;;;;1.43;1.37;;;8.40;57.20;7.90;97906.00;;;;5117588;28;20200;-77
2022/04/19 06:45:12;;;;;;;0.80;0.80;;;8.50;57.60;8.00;97888.00;;;;5099374;28;20256;-76
2022/04/19 06:47:41;;;;;;;0.90;0.90;;;8.60;57.00;8.10;97904.00;;;;5117483;28;20198;-76
2022/04/19 06:50:09;;;;;;;0.80;0.80;;;8.70;57.20;8.10;97909.00;;;;5117354;28;20236;-77
2022/04/19 06:52:36;;;;;;;0.90;0.90;;;8.80;57.30;8.20;97908.00;;;;5117485;28;20262;-77
2022/04/19 06:55:03;;;;;;;1.13;1.03;;;8.80;57.40;8.20;97897.00;;;;5117340;28;20582;-79
2022/04/19 06:57:35;;;;;;;1.07;0.97;;;8.90;58.60;8.30;97913.00;;;;5116651;28;20229;-78
2022/04/19 07:00:02;;;;;;;0.90;0.90;;;8.90;58.70;8.30;97907.00;;;;5099448;28;20204;-78
2022/04/19 07:02:31;;;;;;;1.17;1.07;;;8.90;57.10;8.30;97908.00;;;;5117244;28;20217;-78
2022/04/19 07:04:59;;;;;;;0.87;0.87;;;9.00;57.00;8.40;97906.00;;;;5117219;28;20649;-78
2022/04/19 07:07:26;;;;;;;1.47;1.37;;;9.00;57.20;8.50;97908.00;;;;5117106;28;20552;-79
2022/04/19 07:09:53;;;;;;;2.07;1.97;;;9.10;57.30;8.60;97916.00;;;;5117232;28;20538;-77
2022/04/19 07:12:19;;;;;;;0.70;0.70;;;9.20;57.90;8.60;97905.00;;;;5117116;28;20621;-76
2022/04/19 07:14:49;;;;;;;0.60;0.60;;;9.30;57.60;8.60;97911.00;;;;5117073;28;20301;-80
2022/04/19 07:17:16;;;;;;;0.93;0.93;;;9.20;54.90;8.70;97910.00;;;;5099104;28;20558;-79
2022/04/19 07:28:00;;;;;;;12.17;2.17;;;9.60;52.40;9.10;97913.00;;;;5116810;28;20586;-74
2022/04/19 07:30:27;;;;;;;1.43;1.43;;;9.70;51.40;9.20;97903.00;;;;5116805;28;20235;-75
2022/04/19 07:32:53;;;;;;;1.10;1.10;;;9.80;51.50;9.20;97902.00;;;;5116920;28;20209;-74
2022/04/19 07:35:21;;;;;;;0.80;0.80;;;9.80;51.10;9.20;97913.00;;;;5116792;28;20622;-74
2022/04/19 07:37:47;;;;;;;0.77;0.77;;;9.90;51.30;9.40;97901.00;;;;5116591;28;20674;-75
2022/04/19 07:40:16;;;;;;;1.00;1.00;;;10.00;51.60;9.40;97908.00;;;;5116703;28;20195;-74
2022/04/19 07:42:43;;;;;;;1.37;1.27;;;10.00;50.60;9.60;97894.00;;;;5098706;28;20289;-75
2022/04/19 07:45:11;;;;;;;0.83;0.83;;;10.20;50.50;9.60;97905.00;;;;5116564;28;20222;-75
2022/04/19 07:47:38;;;;;;;0.80;0.80;;;10.20;47.60;9.80;97898.00;;;;5115898;28;20195;-75
2022/04/19 07:50:06;;;;;;;0.70;0.70;;;10.30;46.40;10.00;97898.00;;;;5116655;28;20205;-75
2022/04/19 07:52:35;;;;;;;0.83;0.83;;;10.40;46.40;9.90;97895.00;;;;5116362;28;20551;-74
2022/04/19 07:55:02;;;;;;;0.83;0.83;;;10.50;45.30;9.80;97898.00;;;;5116490;28;20244;-74
2022/04/19 07:57:31;;;;;;;0.90;0.90;;;10.50;45.30;10.00;97898.00;;;;5098216;28;20221;-75
2022/04/19 07:59:57;;;;;;;0.60;0.60;;;10.60;45.40;10.00;97889.00;;;;5116469;28;20198;-76
2022/04/19 08:02:28;;;;;;;14.33;1.93;;;10.70;45.70;10.30;97896.00;;;;5116277;28;20202;-75
2022/04/19 08:04:55;;;;;;;0.87;0.87;;;10.80;45.70;10.40;97892.00;;;;5116390;28;20222;-74
2022/04/19 08:07:21;;;;;;;1.30;1.20;;;11.00;45.30;10.50;97901.00;;;;5116311;28;20182;-75
2022/04/19 08:09:48;;;;;;;1.53;1.43;;;11.10;43.80;10.60;97899.00;;;;5116203;28;20269;-75
2022/04/19 08:12:17;;;;;;;1.43;1.33;;;11.20;43.50;10.70;97899.00;;;;5116158;28;20204;-75
2022/04/19 08:14:44;;;;;;;0.60;0.60;;;11.30;43.70;10.80;97896.00;;;;5116127;28;20634;-75
2022/04/19 08:17:14;;;;;;;0.67;0.67;;;11.30;42.40;10.90;97892.00;;;;5115861;28;20222;-75
2022/04/19 08:19:41;;;;;;;0.63;0.63;;;11.40;42.30;11.00;97895.00;;;;5116053;28;20194;-74
2022/04/19 08:22:08;;;;;;;1.03;1.03;;;11.50;41.10;11.20;97896.00;;;;5115961;28;20213;-73
2022/04/19 08:24:35;;;;;;;0.87;0.70;;;11.60;41.10;11.30;97895.00;;;;5115854;28;20305;-73
2022/04/19 08:27:04;;;;;;;0.60;0.60;;;11.80;40.90;11.50;97872.00;;;;5098044;28;20241;-73
2022/04/19 08:29:34;;;;;;;1.17;1.17;;;12.00;41.30;11.60;97893.00;;;;5115969;28;20281;-73
2022/04/19 08:32:00;;;;;;;6.23;1.57;;;12.10;42.80;11.70;97893.00;;;;5115804;28;20273;-74
2022/04/19 08:34:27;;;;;;;1.93;1.57;;;12.30;42.90;11.90;97887.00;;;;5115842;28;20280;-72
2022/04/19 08:36:55;;;;;;;3.90;1.60;;;12.40;43.40;11.90;97884.00;;;;5115700;28;20225;-75
2022/04/19 08:39:22;;;;;;;1.20;1.10;;;12.50;43.90;12.00;97890.00;;;;5115674;28;20519;-73
2022/04/19 08:41:49;;;;;;;0.70;0.70;;;12.60;44.10;12.10;97883.00;;;;5097945;28;20292;-75
2022/04/19 08:44:19;;;;;;;1.17;1.17;;;12.70;43.90;12.20;97885.00;;;;5115577;28;20533;-75
2022/04/19 08:46:47;;;;;;;1.10;1.10;;;12.70;43.70;12.30;97886.00;;;;5097736;28;20625;-74
2022/04/19 08:49:17;;;;;;;1.13;1.13;;;12.90;43.10;12.40;97874.00;;;;5115595;28;20251;-75
2022/04/19 08:51:45;;;;;;;1.13;1.13;;;13.00;42.40;12.50;97871.00;;;;5115503;28;20222;-75
2022/04/19 08:59:43;;;;;;;0.70;0.70;;;13.40;41.50;13.00;97876.00;;;;5114351;28;20201;-76
2022/04/19 09:02:20;;;;;;;3.50;1.57;;;13.40;41.10;13.10;97876.00;;;;5097982;28;20617;-75
2022/04/19 09:04:47;;;;;;;1.43;1.33;;;13.50;40.50;13.20;97879.00;;;;5115422;28;20198;-77
2022/04/19 09:07:14;;;;;;;2.17;1.30;;;13.70;40.90;13.20;97876.00;;;;5116052;28;20190;-76
2022/04/19 09:09:40;;;;;;;0.83;0.83;;;13.70;39.30;13.20;97872.00;;;;5115361;28;20729;-79
2022/04/19 09:12:12;;;;;;;0.93;0.93;;;13.70;39.70;13.30;97871.00;;;;5115393;28;20213;-78
2022/04/19 09:14:56;;;;;;;1.67;1.57;;;13.80;40.00;13.60;97874.00;;;;5116487;28;20194;-77
2022/04/19 09:17:31;;;;;;;0.60;0.60;;;14.00;40.40;13.50;97872.00;;;;5115616;28;20213;-79
2022/04/19 09:20:14;;;;;;;0.67;0.67;;;14.00;36.80;13.60;97871.00;;;;5114427;28;20283;-78
2022/04/19 09:22:43;;;;;;;1.10;1.10;;;14.10;36.80;13.70;97860.00;;;;5115253;28;20286;-78
2022/04/19 09:25:18;;;;;;;0.80;0.80;;;14.20;37.60;13.70;97864.00;;;;5115201;28;20826;-79
2022/04/19 09:27:46;;;;;;;0.87;0.87;;;14.20;36.70;13.90;97875.00;;;;5115014;28;20326;-79
2022/04/19 09:30:19;;;;;;;1.23;1.23;;;14.30;34.70;14.00;97857.00;;;;5115045;28;20281;-75
2022/04/19 09:33:08;;;;;;;0.57;0.57;;;14.40;33.60;14.10;97872.00;;;;5114908;28;20194;-76
2022/04/19 09:35:37;;;;;;;0.80;0.80;;;14.50;33.50;14.10;97863.00;;;;5115032;28;20296;-77
2022/04/19 09:38:05;;;;;;;1.73;1.50;;;14.60;33.80;14.10;97862.00;;;;5097020;28;20257;-76
2022/04/19 09:40:34;;;;;;;0.90;0.90;;;14.60;33.20;14.20;97841.00;;;;5114733;28;20637;-77
2022/04/19 09:43:12;;;;;;;1.10;1.00;;;14.80;32.70;14.50;97853.00;;;;5114684;28;20637;-75
2022/04/19 09:45:51;;;;;;;0.50;0.50;;;15.00;33.30;14.70;97850.00;;;;5114728;28;20684;-76
2022/04/19 09:48:22;;;;;;;0.77;0.77;;;15.10;33.70;14.70;97856.00;;;;5115256;28;20320;-76
2022/04/19 09:50:57;;;;;;;1.13;1.10;;;15.20;31.60;15.00;97845.00;;;;5115789;28;20190;-77
2022/04/19 09:53:28;;;;;;;0.93;0.93;;;15.40;32.50;15.10;97847.00;;;;5114771;28;20268;-77
2022/04/19 09:55:59;;;;;;;0.80;0.80;;;15.50;31.70;15.20;97844.00;;;;5114694;28;20214;-79
2022/04/19 09:58:27;;;;;;;0.80;0.80;;;15.60;29.60;15.10;97849.00;;;;5114673;28;20795;-79
2022/04/19 10:00:55;;;;;;;2.00;1.27;;;15.60;30.90;15.20;97847.00;;;;5114591;28;20194;-78
2022/04/19 10:08:54;;;;;;;0.70;0.70;;;15.80;26.20;15.40;97845.00;;;;5114462;28;20226;-76
2022/04/19 10:11:27;;;;;;;0.60;0.60;;;15.90;27.00;15.60;97824.00;;;;5096213;28;20546;-77
2022/04/19 10:13:57;;;;;;;0.70;0.70;;;16.00;26.30;15.60;97845.00;;;;5114430;28;20411;-76
2022/04/19 10:16:28;;;;;;;1.07;1.07;;;16.10;27.70;15.80;97834.00;;;;5114304;28;20598;-77
2022/04/19 10:18:55;;;;;;;0.70;0.70;;;16.20;28.60;15.90;97836.00;;;;5096623;28;20198;-74
2022/04/19 10:21:26;;;;;;;0.67;0.67;;;16.40;27.90;15.80;97839.00;;;;5114148;28;20217;-75
2022/04/19 10:24:12;;;;;;;1.60;0.80;;;16.40;28.20;15.70;97833.00;;;;5114113;28;20255;-74
2022/04/19 10:26:46;;;;;;;0.87;0.87;;;16.30;28.20;16.00;97844.00;;;;5114173;28;20236;-77
2022/04/19 10:29:20;;;;;;;1.07;0.97;;;16.50;29.00;16.40;97833.00;;;;5114152;28;20213;-76
2022/04/19 10:31:59;;;;;;;0.90;0.90;;;16.70;28.30;16.50;97842.00;;;;5114078;28;20492;-76
2022/04/19 10:34:27;;;;;;;0.80;0.80;;;16.90;29.20;16.80;97836.00;;;;5114046;28;20366;-76
2022/04/19 10:36:57;;;;;;;1.37;1.13;;;17.10;27.00;17.00;97833.00;;;;5113969;28;20224;-75
2022/04/19 10:39:26;;;;;;;1.10;1.10;;;17.30;27.00;17.20;97797.00;;;;5113899;28;20637;-74
2022/04/19 10:41:56;;;;;;;1.37;1.10;;;17.50;25.10;17.20;97836.00;;;;5114056;28;20226;-76
2022/04/19 10:44:32;;;;;;;0.63;0.63;;;17.60;25.80;17.20;97826.00;;;;5096025;28;20193;-76
2022/04/19 10:47:14;;;;;;;0.60;0.60;;;17.70;24.40;17.30;97831.00;;;;5113828;28;20244;-77
2022/04/19 10:49:59;;;;;;;1.00;1.00;;;17.80;25.00;17.70;97824.00;;;;5113880;28;20198;-76
2022/04/19 10:52:51;;;;;;;0.50;0.50;;;18.10;24.40;17.70;97829.00;;;;5095598;28;20202;-77
2022/04/19 10:55:42;;;;;;;1.00;1.00;;;18.10;24.90;18.00;97823.00;;;;5104858;28;20334;-77
2022/04/19 10:58:20;;;;;;;0.83;0.83;;;18.30;24.30;18.00;97817.00;;;;5110831;28;20244;-77
2022/04/19 11:00:51;;;;;;;0.90;0.90;;;18.40;23.50;18.10;97811.00;;;;5113555;28;20252;-78
2022/04/19 11:03:21;;;;;;;0.60;0.60;;;18.50;23.60;18.40;97822.00;;;;5113667;28;20289;-78
2022/04/19 11:05:50;;;;;;;0.47;0.47;;;18.70;21.90;18.40;97811.00;;;;5095468;28;20355;-78
2022/04/19 11:08:33;;;;;;;0.70;0.70;;;18.80;22.00;18.70;97810.00;;;;5113525;28;20276;-76
2022/04/19 11:11:21;;;;;;;0.80;0.80;;;19.00;21.70;18.70;97803.00;;;;5113530;28;20253;-78
2022/04/19 11:14:44;;;;;;;0.90;0.90;;;19.10;22.30;18.90;97796.00;;;;5113710;28;20208;-79
2022/04/19 11:17:29;;;;;;;0.70;0.70;;;19.30;20.80;18.90;97792.00;;;;5113344;28;20599;-74
2022/04/19 11:20:05;;;;;;;0.80;0.80;;;19.30;22.20;19.20;97797.00;;;;5095266;28;20218;-75
2022/04/19 11:22:51;;;;;;;0.83;0.83;;;19.50;21.80;19.30;97787.00;;;;5114905;28;20189;-75
2022/04/19 11:25:37;;;;;;;0.60;0.60;;;19.60;22.60;19.20;97793.00;;;;5116870;28;20209;-74
2022/04/19 11:28:24;;;;;;;0.77;0.77;;;19.60;23.10;19.30;97793.00;;;;5116849;28;20280;-73
2022/04/19 11:31:15;;;;;;;0.80;0.80;;;19.70;22.40;19.50;97789.00;;;;5116879;28;20202;-74
2022/04/19 11:33:44;;;;;;;1.67;1.57;;;19.80;21.10;19.50;97785.00;;;;5119589;28;20217;-74
2022/04/19 11:36:15;;;;;;;1.10;1.07;;;19.90;19.90;19.60;97778.00;;;;5117777;28;20187;-75
2022/04/19 11:38:46;;;;;;;1.80;1.70;;;19.90;20.80;19.70;97777.00;;;;5116532;28;20358;-75
2022/04/19 11:46:44;;;;;;;1.63;0.97;;;20.40;21.30;20.40;97769.00;;;;5116548;28;20229;-76
2022/04/19 11:49:24;;;;;;;1.23;1.20;;;20.60;19.60;20.60;97767.00;;;;5116607;28;20230;-76
2022/04/19 11:51:54;;;;;;;1.00;1.00;;;20.70;20.70;20.90;97758.00;;;;5116430;28;20230;-74